createdAt,value
2023-04-27T00:01:20.496Z,95333.88
2023-04-27T00:05:03.862Z,95340.09
2023-04-27T00:08:48.118Z,95331.25
2023-04-27T00:12:30.787Z,95332.44
2023-04-27T00:16:13.578Z,95331.97
2023-04-27T00:19:56.321Z,95332.34
2023-04-27T00:23:38.968Z,95336.34
2023-04-27T00:27:22.963Z,95326.50
2023-04-27T00:31:05.917Z,95322.06
2023-04-27T00:34:48.560Z,95328.09
2023-04-27T00:38:31.591Z,95322.88
2023-04-27T00:42:19.578Z,95320.88
2023-04-27T00:46:03.689Z,95317.25
2023-04-27T00:49:46.409Z,95322.50
2023-04-27T00:53:29.210Z,95320.50
2023-04-27T00:57:12.010Z,95337.03
2023-04-27T01:00:54.771Z,95320.50
2023-04-27T01:04:38.886Z,95316.88
2023-04-27T01:08:21.595Z,95330.16
2023-04-27T01:12:04.666Z,95324.91
2023-04-27T01:15:47.296Z,95324.13
2023-04-27T01:19:31.231Z,95329.34
2023-04-27T01:23:17.328Z,95327.31
2023-04-27T01:27:00.227Z,95323.25
2023-04-27T01:30:42.840Z,95326.06
2023-04-27T01:34:25.453Z,95322.44
2023-04-27T01:38:08.114Z,95327.69
2023-04-27T01:41:52.148Z,95323.25
2023-04-27T01:45:34.772Z,95328.50
2023-04-27T01:49:17.478Z,95332.09
2023-04-27T01:53:00.130Z,95328.88
2023-04-27T01:56:43.115Z,95330.88
2023-04-27T02:00:27.222Z,95329.63
2023-04-27T02:04:09.986Z,95333.63
2023-04-27T02:07:52.783Z,95334.97
2023-04-27T02:11:35.430Z,95336.53
2023-04-27T02:15:18.415Z,95333.84
2023-04-27T02:19:03.117Z,95329.34
2023-04-27T02:22:45.901Z,95332.34
2023-04-27T02:26:29.494Z,95339.94
2023-04-27T02:30:12.906Z,95331.22
2023-04-27T02:33:58.689Z,95337.44
2023-04-27T02:37:42.691Z,95347.66
2023-04-27T02:41:27.945Z,95353.28
2023-04-27T02:45:11.154Z,95348.41
2023-04-27T02:48:53.786Z,95356.63
2023-04-27T02:52:36.450Z,95351.13
2023-04-27T02:56:20.671Z,95358.69
2023-04-27T03:00:06.877Z,95345.34
2023-04-27T03:03:49.700Z,95344.47
2023-04-27T03:07:32.492Z,95344.47
2023-04-27T03:11:15.078Z,95344.03
2023-04-27T03:14:59.659Z,95356.84
2023-04-27T03:18:42.298Z,95352.78
2023-04-27T03:22:25.004Z,95346.28
2023-04-27T03:26:08.462Z,95360.38
2023-04-27T03:29:52.738Z,95363.63
2023-04-27T03:33:37.424Z,95364.25
2023-04-27T03:37:20.061Z,95376.97
2023-04-27T03:41:02.716Z,95364.69
2023-04-27T03:44:48.221Z,95372.16
2023-04-27T03:48:30.957Z,95364.59
2023-04-27T03:52:14.942Z,95373.44
2023-04-27T03:55:57.557Z,95370.00
2023-04-27T03:59:40.176Z,95373.44
2023-04-27T04:03:23.001Z,95378.66
2023-04-27T04:07:05.850Z,95386.31
2023-04-27T04:10:49.848Z,95382.72
2023-04-27T04:14:32.529Z,95394.63
2023-04-27T04:18:15.174Z,95406.53
2023-04-27T04:21:57.867Z,95405.72
2023-04-27T04:25:41.615Z,95405.53
2023-04-27T04:29:25.686Z,95420.25
2023-04-27T04:33:08.710Z,95410.59
2023-04-27T04:36:52.266Z,95419.19
2023-04-27T04:40:34.988Z,95428.84
2023-04-27T04:44:17.702Z,95424.13
2023-04-27T04:48:02.086Z,95419.88
2023-04-27T04:51:45.625Z,95416.25
2023-04-27T04:55:31.197Z,95419.19
2023-04-27T04:59:14.046Z,95422.06
2023-04-27T05:02:56.978Z,95431.16
2023-04-27T05:06:41.652Z,95411.75
2023-04-27T05:10:24.258Z,95428.34
2023-04-27T05:14:09.494Z,95433.94
2023-04-27T05:17:54.103Z,95450.28
2023-04-27T05:21:36.768Z,95440.44
2023-04-27T05:25:20.863Z,95437.63
2023-04-27T05:29:03.506Z,95439.16
2023-04-27T05:32:46.279Z,95432.97
2023-04-27T05:36:29.306Z,95425.38
2023-04-27T05:40:12.472Z,95436.84
2023-04-27T05:43:56.453Z,95444.03
2023-04-27T05:47:39.218Z,95465.00
2023-04-27T05:51:23.830Z,95453.53
2023-04-27T05:55:08.056Z,95465.38
2023-04-27T05:58:50.946Z,95455.63
2023-04-27T06:02:35.259Z,95451.84
2023-04-27T06:06:18.017Z,95453.50
2023-04-27T06:10:03.084Z,95448.06
2023-04-27T06:13:46.312Z,95456.31
2023-04-27T06:17:28.983Z,95452.69
2023-04-27T06:21:12.989Z,95456.44
2023-04-27T06:24:55.605Z,95474.25
2023-04-27T06:28:38.278Z,95464.19
2023-04-27T06:32:21.027Z,95457.69
2023-04-27T06:36:03.706Z,95456.13
2023-04-27T06:39:47.958Z,95459.19
2023-04-27T06:43:30.956Z,95453.56
2023-04-27T06:47:13.723Z,95458.56
2023-04-27T06:50:56.582Z,95465.00
2023-04-27T06:54:39.224Z,95468.16
2023-04-27T06:58:27.032Z,95466.78
2023-04-27T07:02:09.698Z,95463.03
2023-04-27T07:05:53.095Z,95470.00
2023-04-27T07:09:37.708Z,95469.28
2023-04-27T07:13:20.361Z,95470.16
2023-04-27T07:17:04.424Z,95470.63
2023-04-27T07:20:47.070Z,95479.75
2023-04-27T07:24:29.832Z,95474.28
2023-04-27T07:28:12.781Z,95471.06
2023-04-27T07:31:55.680Z,95474.31
2023-04-27T07:35:40.095Z,95475.94
2023-04-27T07:39:23.494Z,95463.03
2023-04-27T07:43:06.159Z,95465.47
2023-04-27T07:46:49.415Z,95464.28
2023-04-27T07:50:32.938Z,95474.81
2023-04-27T07:54:17.086Z,95467.13
2023-04-27T07:57:59.806Z,95466.13
2023-04-27T08:01:42.904Z,95471.97
2023-04-27T08:05:25.853Z,95479.47
2023-04-27T08:09:09.484Z,95484.72
2023-04-27T08:12:53.489Z,95483.28
2023-04-27T08:16:36.578Z,95483.69
2023-04-27T08:20:19.301Z,95484.50
2023-04-27T08:24:02.359Z,95490.97
2023-04-27T08:27:45.006Z,95493.00
2023-04-27T08:31:29.045Z,95488.34
2023-04-27T08:35:14.810Z,95488.16
2023-04-27T08:38:57.501Z,95483.28
2023-04-27T08:42:41.592Z,95497.84
2023-04-27T08:46:27.002Z,95493.03
2023-04-27T08:50:12.195Z,95498.69
2023-04-27T08:53:56.564Z,95488.53
2023-04-27T08:57:39.322Z,95478.78
2023-04-27T09:01:22.640Z,95476.28
2023-04-27T09:05:06.464Z,95469.94
2023-04-27T09:08:51.485Z,95464.41
2023-04-27T09:12:34.088Z,95470.47
2023-04-27T09:16:17.168Z,95479.81
2023-04-27T09:20:08.908Z,95460.59
2023-04-27T09:23:53.588Z,95465.09
2023-04-27T09:27:36.413Z,95465.50
2023-04-27T09:31:19.455Z,95456.34
2023-04-27T09:35:02.203Z,95453.78
2023-04-27T09:38:45.086Z,95448.00
2023-04-27T09:42:29.140Z,95461.38
2023-04-27T09:46:12.478Z,95451.84
2023-04-27T09:49:55.225Z,95452.97
2023-04-27T09:53:41.722Z,95446.97
2023-04-27T09:57:32.252Z,95432.53
2023-04-27T10:01:24.032Z,95442.94
2023-04-27T10:05:21.408Z,95437.50
2023-04-27T10:09:07.437Z,95440.41
2023-04-27T10:13:07.402Z,95434.63
2023-04-27T10:16:53.368Z,95429.69
2023-04-27T10:20:37.553Z,95428.78
2023-04-27T10:24:20.372Z,95422.34
2023-04-27T10:28:04.803Z,95410.31
2023-04-27T10:31:49.915Z,95420.72
2023-04-27T10:35:37.334Z,95413.84
2023-04-27T10:39:35.939Z,95424.41
2023-04-27T10:43:29.959Z,95412.66
2023-04-27T10:47:16.791Z,95413.09
2023-04-27T10:50:59.866Z,95407.94
2023-04-27T10:54:46.847Z,95411.94
2023-04-27T10:58:41.512Z,95405.84
2023-04-27T11:02:31.359Z,95413.81
2023-04-27T11:06:14.129Z,95401.72
2023-04-27T11:09:56.922Z,95406.03
2023-04-27T11:13:41.415Z,95416.69
2023-04-27T11:17:30.125Z,95413.56
2023-04-27T11:21:13.965Z,95412.03
2023-04-27T11:24:56.988Z,95419.00
2023-04-27T11:28:41.131Z,95415.91
2023-04-27T11:32:24.807Z,95410.06
2023-04-27T11:36:17.537Z,95421.84
2023-04-27T11:40:01.399Z,95421.53
2023-04-27T11:43:47.016Z,95425.22
2023-04-27T11:47:31.437Z,95423.47
2023-04-27T11:51:14.106Z,95416.38
2023-04-27T11:54:56.954Z,95419.63
2023-04-27T11:58:40.550Z,95422.97
2023-04-27T12:02:24.913Z,95433.81
2023-04-27T12:06:22.021Z,95431.63
2023-04-27T12:10:13.555Z,95424.72
2023-04-27T12:13:56.747Z,95431.06
2023-04-27T12:17:41.549Z,95421.56
2023-04-27T12:21:24.235Z,95421.91
2023-04-27T12:25:08.647Z,95422.94
2023-04-27T12:28:51.302Z,95429.19
2023-04-27T12:32:34.027Z,95423.41
2023-04-27T12:36:18.194Z,95433.78
2023-04-27T12:40:00.947Z,95420.84
2023-04-27T12:43:43.889Z,95410.47
2023-04-27T12:47:46.365Z,95407.88
2023-04-27T12:51:31.126Z,95413.25
2023-04-27T12:55:28.990Z,95408.13
2023-04-27T12:59:16.756Z,95406.44
2023-04-27T13:02:59.483Z,95409.66
2023-04-27T13:06:43.622Z,95402.72
2023-04-27T13:10:26.334Z,95399.28
2023-04-27T13:14:09.887Z,95398.66
2023-04-27T13:17:53.253Z,95402.16
2023-04-27T13:21:36.144Z,95404.22
2023-04-27T13:25:20.826Z,95399.25
2023-04-27T13:29:04.735Z,95410.72
2023-04-27T13:32:47.492Z,95404.72
2023-04-27T13:36:30.232Z,95400.25
2023-04-27T13:40:13.483Z,95393.28
2023-04-27T13:43:57.498Z,95391.38
2023-04-27T13:47:40.718Z,95391.38
2023-04-27T13:51:23.499Z,95394.19
2023-04-27T13:55:06.929Z,95386.72
2023-04-27T13:58:49.738Z,95381.66
2023-04-27T14:02:35.958Z,95388.78
2023-04-27T14:06:18.648Z,95391.50
2023-04-27T14:10:01.280Z,95379.47
2023-04-27T14:13:43.909Z,95391.84
2023-04-27T14:17:26.763Z,95382.72
2023-04-27T14:21:11.131Z,95375.25
2023-04-27T14:24:53.915Z,95365.44
2023-04-27T14:28:36.830Z,95375.81
2023-04-27T14:32:19.648Z,95371.09
2023-04-27T14:36:02.356Z,95380.19
2023-04-27T14:39:46.533Z,95379.38
2023-04-27T14:43:29.198Z,95379.38
2023-04-27T14:47:11.832Z,95376.94
2023-04-27T14:50:54.643Z,95367.84
2023-04-27T14:54:38.452Z,95364.16
2023-04-27T14:58:22.430Z,95368.97
2023-04-27T15:02:05.095Z,95359.72
2023-04-27T15:05:47.737Z,95361.75
2023-04-27T15:09:30.403Z,95358.69
2023-04-27T15:13:13.045Z,95369.06
2023-04-27T15:16:57.047Z,95365.75
2023-04-27T15:20:39.717Z,95363.50
2023-04-27T15:24:22.362Z,95355.31
2023-04-27T15:28:05.157Z,95352.94
2023-04-27T15:31:48.342Z,95363.63
2023-04-27T15:35:32.478Z,95361.44
2023-04-27T15:39:15.436Z,95353.69
2023-04-27T15:42:58.964Z,95344.00
2023-04-27T15:46:41.723Z,95350.81
2023-04-27T15:50:24.515Z,95355.81
2023-04-27T15:54:08.521Z,95356.38
2023-04-27T15:57:51.268Z,95357.28
2023-04-27T16:01:33.914Z,95361.25
2023-04-27T16:05:16.676Z,95356.41
2023-04-27T16:08:59.302Z,95356.09
2023-04-27T16:12:43.301Z,95355.03
2023-04-27T16:16:26.768Z,95346.25
2023-04-27T16:20:10.120Z,95344.75
2023-04-27T16:23:52.721Z,95341.59
2023-04-27T16:27:35.330Z,95337.56
2023-04-27T16:31:19.330Z,95346.00
2023-04-27T16:35:01.989Z,95343.84
2023-04-27T16:38:44.636Z,95344.59
2023-04-27T16:42:27.287Z,95338.28
2023-04-27T16:46:11.365Z,95345.94
2023-04-27T16:49:55.460Z,95343.72
2023-04-27T16:53:38.231Z,95334.09
2023-04-27T16:57:21.120Z,95331.78
2023-04-27T17:01:04.685Z,95333.13
2023-04-27T17:04:47.481Z,95326.88
2023-04-27T17:08:43.018Z,95329.41
2023-04-27T17:12:26.156Z,95325.78
2023-04-27T17:16:11.663Z,95329.91
2023-04-27T17:19:54.336Z,95338.78
2023-04-27T17:23:38.666Z,95336.53
2023-04-27T17:27:22.100Z,95332.22
2023-04-27T17:31:04.869Z,95336.06
2023-04-27T17:34:47.565Z,95325.13
2023-04-27T17:38:30.254Z,95322.28
2023-04-27T17:42:14.220Z,95336.25
2023-04-27T17:45:56.870Z,95330.69
2023-04-27T17:49:39.503Z,95333.66
2023-04-27T17:53:22.116Z,95346.72
2023-04-27T17:57:05.074Z,95337.69
2023-04-27T18:00:49.140Z,95340.38
2023-04-27T18:04:31.964Z,95346.41
2023-04-27T18:08:14.667Z,95344.91
2023-04-27T18:11:57.283Z,95349.91
2023-04-27T18:15:39.971Z,95349.09
2023-04-27T18:19:23.935Z,95336.09
2023-04-27T18:23:06.585Z,95346.91
2023-04-27T18:26:49.304Z,95343.91
2023-04-27T18:30:32.090Z,95346.19
2023-04-27T18:34:14.718Z,95359.06
2023-04-27T18:37:58.696Z,95355.53
2023-04-27T18:41:41.338Z,95355.28
2023-04-27T18:45:24.020Z,95368.47
2023-04-27T18:49:06.671Z,95374.75
2023-04-27T18:52:49.400Z,95373.22
2023-04-27T18:56:33.391Z,95373.75
2023-04-27T19:00:17.027Z,95372.19
2023-04-27T19:04:00.387Z,95374.09
2023-04-27T19:07:43.250Z,95373.75
2023-04-27T19:11:25.957Z,95384.25
2023-04-27T19:15:11.499Z,95382.72
2023-04-27T19:18:54.337Z,95389.91
2023-04-27T19:22:37.136Z,95381.47
2023-04-27T19:26:19.765Z,95394.72
2023-04-27T19:30:03.832Z,95387.06
2023-04-27T19:37:37.311Z,95389.66
2023-04-27T19:41:19.955Z,95383.63
2023-04-27T19:45:03.917Z,95380.25
2023-04-27T19:48:47.938Z,95385.00
2023-04-27T19:52:31.249Z,95388.66
2023-04-27T19:56:13.896Z,95390.34
2023-04-27T19:59:57.001Z,95385.91
2023-04-27T20:03:40.139Z,95381.72
2023-04-27T20:07:26.765Z,95382.38
2023-04-27T20:11:09.445Z,95388.88
2023-04-27T20:14:52.111Z,95384.88
2023-04-27T20:18:34.997Z,95382.72
2023-04-27T20:22:17.679Z,95389.66
2023-04-27T20:26:01.725Z,95381.72
2023-04-27T20:29:46.523Z,95377.09
2023-04-27T20:33:29.233Z,95378.56
2023-04-27T20:37:11.852Z,95372.09
2023-04-27T20:40:54.791Z,95378.59
2023-04-27T20:44:39.042Z,95377.00
2023-04-27T20:48:21.776Z,95385.66
2023-04-27T20:52:04.471Z,95372.81
2023-04-27T20:55:47.238Z,95373.28
2023-04-27T20:59:29.852Z,95364.00
2023-04-27T21:03:14.213Z,95362.22
2023-04-27T21:06:56.944Z,95365.09
2023-04-27T21:10:39.602Z,95364.88
2023-04-27T21:14:22.227Z,95362.50
2023-04-27T21:18:07.880Z,95375.47
2023-04-27T21:21:53.713Z,95360.91
2023-04-27T21:25:36.401Z,95351.59
2023-04-27T21:29:19.192Z,95352.19
2023-04-27T21:33:01.832Z,95349.16
2023-04-27T21:36:44.439Z,95351.19
2023-04-27T21:40:28.485Z,95352.03
2023-04-27T21:44:11.236Z,95340.31
2023-04-27T21:47:53.941Z,95336.88
2023-04-27T21:51:36.943Z,95337.13
2023-04-27T21:55:19.663Z,95336.13
2023-04-27T21:59:04.020Z,95333.13
2023-04-27T22:02:47.066Z,95329.88
2023-04-27T22:06:30.669Z,95331.50
2023-04-27T22:10:13.306Z,95333.13
2023-04-27T22:13:56.233Z,95325.25
2023-04-27T22:17:40.631Z,95323.84
2023-04-27T22:21:23.294Z,95329.09
2023-04-27T22:25:06.795Z,95345.69
2023-04-27T22:28:49.533Z,95340.84
2023-04-27T22:32:32.662Z,95342.06
2023-04-27T22:36:16.824Z,95341.84
2023-04-27T22:39:59.461Z,95327.50
2023-04-27T22:43:42.089Z,95328.72
2023-04-27T22:47:25.423Z,95332.16
2023-04-27T22:51:09.606Z,95329.31
2023-04-27T22:54:54.931Z,95327.91
2023-04-27T22:58:37.555Z,95318.59
2023-04-27T23:02:20.215Z,95322.25
2023-04-27T23:06:02.898Z,95306.47
2023-04-27T23:09:45.943Z,95310.13
2023-04-27T23:13:30.048Z,95306.88
2023-04-27T23:17:12.709Z,95307.28
2023-04-27T23:20:55.594Z,95311.94
2023-04-27T23:24:38.254Z,95309.31
2023-04-27T23:28:22.373Z,95290.69
2023-04-27T23:32:07.529Z,95293.50
2023-04-27T23:35:50.190Z,95291.09
2023-04-27T23:39:32.823Z,95287.44
2023-04-27T23:43:15.585Z,95287.44
2023-04-27T23:46:58.408Z,95296.34
2023-04-27T23:50:42.370Z,95280.16
2023-04-27T23:54:25.971Z,95286.22
2023-04-27T23:58:08.619Z,95289.47
